sensor_id;sensor_type;location;lat;lon;timestamp;pressure;altitude;pressure_sealevel;temperature;humidity
27805;BME280;15183;51.350;11.102;2023-01-26T00:02:16;100843.16;;;3.58;67.73
27805;BME280;15183;51.350;11.102;2023-01-26T00:04:43;100854.22;;;3.70;68.02
27805;BME280;15183;51.350;11.102;2023-01-26T00:07:09;100829.50;;;3.46;67.18
27805;BME280;15183;51.350;11.102;2023-01-26T00:09:35;100805.44;;;3.24;67.82
27805;BME280;15183;51.350;11.102;2023-01-26T00:12:02;100845.06;;;3.47;67.67
27805;BME280;15183;51.350;11.102;2023-01-26T00:14:28;100824.44;;;3.26;68.04
27805;BME280;15183;51.350;11.102;2023-01-26T00:17:19;100824.44;;;3.26;67.82
27805;BME280;15183;51.350;11.102;2023-01-26T00:23:34;100836.72;;;3.44;68.06
27805;BME280;15183;51.350;11.102;2023-01-26T00:26:01;100831.50;;;3.52;68.16
27805;BME280;15183;51.350;11.102;2023-01-26T00:28:28;100832.19;;;3.54;67.99
27805;BME280;15183;51.350;11.102;2023-01-26T00:31:07;100810.06;;;3.57;68.05
27805;BME280;15183;51.350;11.102;2023-01-26T00:33:33;100818.69;;;3.75;68.30
27805;BME280;15183;51.350;11.102;2023-01-26T00:36:00;100825.84;;;3.91;68.60
27805;BME280;15183;51.350;11.102;2023-01-26T00:38:27;100831.13;;;4.08;68.14
27805;BME280;15183;51.350;11.102;2023-01-26T00:40:53;100821.97;;;4.12;67.88
27805;BME280;15183;51.350;11.102;2023-01-26T00:43:19;100823.28;;;4.16;67.98
27805;BME280;15183;51.350;11.102;2023-01-26T00:45:47;100814.47;;;4.17;68.08
27805;BME280;15183;51.350;11.102;2023-01-26T00:48:14;100797.56;;;4.12;67.38
27805;BME280;15183;51.350;11.102;2023-01-26T00:50:41;100819.31;;;4.47;67.72
27805;BME280;15183;51.350;11.102;2023-01-26T00:53:08;100792.22;;;4.46;67.53
27805;BME280;15183;51.350;11.102;2023-01-26T00:55:34;100811.31;;;4.65;67.24
27805;BME280;15183;51.350;11.102;2023-01-26T00:58:04;100825.09;;;4.84;67.43
27805;BME280;15183;51.350;11.102;2023-01-26T01:00:33;100800.81;;;4.82;67.28
27805;BME280;15183;51.350;11.102;2023-01-26T01:03:00;100794.25;;;4.86;67.42
27805;BME280;15183;51.350;11.102;2023-01-26T01:05:29;100731.41;;;4.51;67.34
27805;BME280;15183;51.350;11.102;2023-01-26T01:07:56;100797.19;;;5.07;66.74
27805;BME280;15183;51.350;11.102;2023-01-26T01:10:24;100812.28;;;5.22;66.92
27805;BME280;15183;51.350;11.102;2023-01-26T01:12:54;100806.72;;;5.17;66.54
27805;BME280;15183;51.350;11.102;2023-01-26T01:15:21;100807.69;;;5.16;66.59
27805;BME280;15183;51.350;11.102;2023-01-26T01:17:48;100722.22;;;4.55;66.50
27805;BME280;15183;51.350;11.102;2023-01-26T01:20:14;100801.63;;;5.07;66.59
27805;BME280;15183;51.350;11.102;2023-01-26T01:22:41;100785.22;;;4.97;66.68
27805;BME280;15183;51.350;11.102;2023-01-26T01:25:08;100789.34;;;4.99;67.05
27805;BME280;15183;51.350;11.102;2023-01-26T01:27:34;100784.75;;;5.01;66.81
27805;BME280;15183;51.350;11.102;2023-01-26T01:30:00;100790.13;;;5.00;66.53
27805;BME280;15183;51.350;11.102;2023-01-26T01:32:34;100739.44;;;4.58;67.14
27805;BME280;15183;51.350;11.102;2023-01-26T01:35:01;100761.28;;;4.83;66.65
27805;BME280;15183;51.350;11.102;2023-01-26T01:37:29;100771.91;;;4.90;67.09
27805;BME280;15183;51.350;11.102;2023-01-26T01:39:55;100774.06;;;4.95;66.94
27805;BME280;15183;51.350;11.102;2023-01-26T01:46:34;100759.94;;;4.62;66.44
27805;BME280;15183;51.350;11.102;2023-01-26T01:49:13;100797.19;;;4.66;66.23
27805;BME280;15183;51.350;11.102;2023-01-26T01:51:44;100794.53;;;4.41;66.67
27805;BME280;15183;51.350;11.102;2023-01-26T01:54:19;100772.19;;;4.20;66.97
27805;BME280;15183;51.350;11.102;2023-01-26T01:56:51;100682.19;;;3.60;66.72
27805;BME280;15183;51.350;11.102;2023-01-26T01:59:19;100680.38;;;3.53;67.37
27805;BME280;15183;51.350;11.102;2023-01-26T02:01:48;100679.44;;;3.62;67.07
27805;BME280;15183;51.350;11.102;2023-01-26T02:04:16;100770.38;;;4.29;67.43
27805;BME280;15183;51.350;11.102;2023-01-26T02:06:53;100772.88;;;4.39;66.97
27805;BME280;15183;51.350;11.102;2023-01-26T02:09:27;100747.94;;;4.35;67.71
27805;BME280;15183;51.350;11.102;2023-01-26T02:12:19;100749.91;;;4.41;67.46
27805;BME280;15183;51.350;11.102;2023-01-26T02:14:49;100751.41;;;4.52;67.12
27805;BME280;15183;51.350;11.102;2023-01-26T02:17:17;100733.84;;;4.53;67.36
27805;BME280;15183;51.350;11.102;2023-01-26T02:26:07;100724.84;;;4.63;66.77
27805;BME280;15183;51.350;11.102;2023-01-26T02:28:34;100705.50;;;4.56;66.88
27805;BME280;15183;51.350;11.102;2023-01-26T02:31:00;100726.16;;;4.68;67.04
27805;BME280;15183;51.350;11.102;2023-01-26T02:33:30;100737.47;;;4.76;67.24
27805;BME280;15183;51.350;11.102;2023-01-26T02:35:57;100660.06;;;4.39;66.97
27805;BME280;15183;51.350;11.102;2023-01-26T02:38:30;100716.47;;;4.85;66.97
27805;BME280;15183;51.350;11.102;2023-01-26T02:41:10;100715.78;;;4.91;66.69
27805;BME280;15183;51.350;11.102;2023-01-26T02:43:38;100694.97;;;4.89;66.61
27805;BME280;15183;51.350;11.102;2023-01-26T02:46:05;100717.13;;;4.95;67.01
27805;BME280;15183;51.350;11.102;2023-01-26T02:48:32;100684.97;;;4.76;67.01
27805;BME280;15183;51.350;11.102;2023-01-26T02:51:17;100721.72;;;4.93;66.63
27805;BME280;15183;51.350;11.102;2023-01-26T02:53:43;100700.25;;;4.81;66.77
27805;BME280;15183;51.350;11.102;2023-01-26T02:56:09;100641.53;;;4.32;66.31
27805;BME280;15183;51.350;11.102;2023-01-26T02:58:36;100701.22;;;4.55;66.07
27805;BME280;15183;51.350;11.102;2023-01-26T03:01:02;100687.59;;;4.27;66.86
27805;BME280;15183;51.350;11.102;2023-01-26T03:03:29;100700.53;;;4.28;67.06
27805;BME280;15183;51.350;11.102;2023-01-26T03:06:08;100703.66;;;4.24;67.12
27805;BME280;15183;51.350;11.102;2023-01-26T03:08:36;100696.09;;;4.12;67.37
27805;BME280;15183;51.350;11.102;2023-01-26T03:11:04;100681.31;;;3.95;67.02
27805;BME280;15183;51.350;11.102;2023-01-26T03:13:31;100642.88;;;3.52;66.88
27805;BME280;15183;51.350;11.102;2023-01-26T03:15:57;100720.91;;;3.75;66.64
27805;BME280;15183;51.350;11.102;2023-01-26T03:18:28;100661.06;;;3.19;66.65
27805;BME280;15183;51.350;11.102;2023-01-26T03:21:15;100694.50;;;3.25;66.95
27805;BME280;15183;51.350;11.102;2023-01-26T03:24:00;100672.94;;;3.05;67.68
27805;BME280;15183;51.350;11.102;2023-01-26T03:26:46;100680.66;;;3.07;67.83
27805;BME280;15183;51.350;11.102;2023-01-26T03:29:31;100694.91;;;3.12;67.85
27805;BME280;15183;51.350;11.102;2023-01-26T03:31:58;100667.16;;;2.93;68.07
27805;BME280;15183;51.350;11.102;2023-01-26T03:34:25;100691.44;;;3.03;68.16
27805;BME280;15183;51.350;11.102;2023-01-26T03:36:51;100683.59;;;3.03;67.69
27805;BME280;15183;51.350;11.102;2023-01-26T03:39:18;100699.69;;;3.17;68.00
27805;BME280;15183;51.350;11.102;2023-01-26T03:42:04;100681.00;;;3.12;68.30
27805;BME280;15183;51.350;11.102;2023-01-26T03:44:49;100691.75;;;3.35;68.59
27805;BME280;15183;51.350;11.102;2023-01-26T03:47:35;100686.41;;;3.45;68.35
27805;BME280;15183;51.350;11.102;2023-01-26T03:50:20;100664.09;;;3.41;67.77
27805;BME280;15183;51.350;11.102;2023-01-26T03:53:18;100668.53;;;3.40;68.16
27805;BME280;15183;51.350;11.102;2023-01-26T03:56:04;100677.19;;;3.41;67.77
27805;BME280;15183;51.350;11.102;2023-01-26T03:58:44;100659.13;;;3.21;67.61
27805;BME280;15183;51.350;11.102;2023-01-26T04:01:13;100663.38;;;3.22;67.73
27805;BME280;15183;51.350;11.102;2023-01-26T04:03:50;100693.38;;;3.28;67.55
27805;BME280;15183;51.350;11.102;2023-01-26T04:06:40;100684.97;;;3.16;67.99
27805;BME280;15183;51.350;11.102;2023-01-26T04:09:25;100661.47;;;2.98;67.81
27805;BME280;15183;51.350;11.102;2023-01-26T04:11:52;100679.16;;;3.04;67.79
27805;BME280;15183;51.350;11.102;2023-01-26T04:14:18;100677.56;;;3.11;68.51
27805;BME280;15183;51.350;11.102;2023-01-26T04:17:03;100651.72;;;3.16;68.26
27805;BME280;15183;51.350;11.102;2023-01-26T04:19:50;100669.28;;;3.24;68.26
27805;BME280;15183;51.350;11.102;2023-01-26T04:22:37;100655.63;;;3.12;67.83
27805;BME280;15183;51.350;11.102;2023-01-26T04:25:07;100651.69;;;3.08;67.86
27805;BME280;15183;51.350;11.102;2023-01-26T04:27:34;100646.94;;;3.03;68.41
27805;BME280;15183;51.350;11.102;2023-01-26T04:30:02;100601.78;;;2.75;68.16
27805;BME280;15183;51.350;11.102;2023-01-26T04:32:29;100637.38;;;2.94;67.74
27805;BME280;15183;51.350;11.102;2023-01-26T04:34:56;100654.59;;;2.97;67.69
27805;BME280;15183;51.350;11.102;2023-01-26T04:37:22;100658.00;;;2.97;67.82
27805;BME280;15183;51.350;11.102;2023-01-26T04:39:49;100630.91;;;2.80;68.18
27805;BME280;15183;51.350;11.102;2023-01-26T04:42:15;100655.38;;;2.97;68.28
27805;BME280;15183;51.350;11.102;2023-01-26T04:44:42;100653.13;;;3.02;68.43
27805;BME280;15183;51.350;11.102;2023-01-26T04:47:08;100617.69;;;2.82;68.06
27805;BME280;15183;51.350;11.102;2023-01-26T04:49:34;100632.41;;;2.83;68.11
27805;BME280;15183;51.350;11.102;2023-01-26T04:52:01;100651.09;;;2.88;67.53
27805;BME280;15183;51.350;11.102;2023-01-26T04:54:27;100621.03;;;2.66;67.99
27805;BME280;15183;51.350;11.102;2023-01-26T04:56:54;100650.28;;;2.87;68.54
27805;BME280;15183;51.350;11.102;2023-01-26T04:59:20;100650.13;;;2.89;68.12
27805;BME280;15183;51.350;11.102;2023-01-26T05:01:46;100610.34;;;2.59;68.09
27805;BME280;15183;51.350;11.102;2023-01-26T05:04:13;100638.88;;;2.97;68.33
27805;BME280;15183;51.350;11.102;2023-01-26T05:06:40;100632.66;;;2.98;68.01
27805;BME280;15183;51.350;11.102;2023-01-26T05:09:07;100603.09;;;2.79;67.95
27805;BME280;15183;51.350;11.102;2023-01-26T05:11:33;100651.66;;;3.00;68.33
27805;BME280;15183;51.350;11.102;2023-01-26T05:14:00;100643.69;;;2.83;67.66
27805;BME280;15183;51.350;11.102;2023-01-26T05:16:26;100645.16;;;2.78;67.96
27805;BME280;15183;51.350;11.102;2023-01-26T05:18:53;100633.09;;;2.58;68.19
27805;BME280;15183;51.350;11.102;2023-01-26T05:21:20;100644.88;;;2.63;68.13
27805;BME280;15183;51.350;11.102;2023-01-26T05:23:50;100634.19;;;2.56;67.81
27805;BME280;15183;51.350;11.102;2023-01-26T05:26:16;100654.97;;;2.57;67.97
27805;BME280;15183;51.350;11.102;2023-01-26T05:28:43;100627.00;;;2.31;68.17
27805;BME280;15183;51.350;11.102;2023-01-26T05:31:09;100667.41;;;2.55;68.41
27805;BME280;15183;51.350;11.102;2023-01-26T05:33:36;100636.69;;;2.39;68.45
27805;BME280;15183;51.350;11.102;2023-01-26T05:36:05;100668.38;;;2.54;68.40
27805;BME280;15183;51.350;11.102;2023-01-26T05:38:33;100584.38;;;1.95;68.59
27805;BME280;15183;51.350;11.102;2023-01-26T05:40:59;100656.09;;;2.55;68.75
27805;BME280;15183;51.350;11.102;2023-01-26T05:43:26;100654.16;;;2.57;68.12
27805;BME280;15183;51.350;11.102;2023-01-26T05:45:52;100646.91;;;2.51;68.31
27805;BME280;15183;51.350;11.102;2023-01-26T05:48:19;100649.75;;;2.57;68.15
27805;BME280;15183;51.350;11.102;2023-01-26T05:50:45;100576.16;;;2.08;68.31
27805;BME280;15183;51.350;11.102;2023-01-26T05:53:11;100670.59;;;2.67;68.08
27805;BME280;15183;51.350;11.102;2023-01-26T05:55:38;100655.97;;;2.56;68.16
27805;BME280;15183;51.350;11.102;2023-01-26T05:58:04;100671.25;;;2.69;68.45
27805;BME280;15183;51.350;11.102;2023-01-26T06:00:31;100660.66;;;2.53;68.40
27805;BME280;15183;51.350;11.102;2023-01-26T06:02:57;100680.22;;;2.67;68.44
27805;BME280;15183;51.350;11.102;2023-01-26T06:05:24;100680.22;;;2.67;67.63
27805;BME280;15183;51.350;11.102;2023-01-26T06:07:50;100653.56;;;2.45;67.80
27805;BME280;15183;51.350;11.102;2023-01-26T06:10:17;100642.84;;;2.30;68.57
27805;BME280;15183;51.350;11.102;2023-01-26T06:12:43;100665.66;;;2.46;68.57
27805;BME280;15183;51.350;11.102;2023-01-26T06:15:10;100671.44;;;2.50;68.25
27805;BME280;15183;51.350;11.102;2023-01-26T06:17:38;100678.34;;;2.59;68.77
27805;BME280;15183;51.350;11.102;2023-01-26T06:20:06;100657.50;;;2.67;68.94
27805;BME280;15183;51.350;11.102;2023-01-26T06:22:32;100676.63;;;2.94;68.68
27805;BME280;15183;51.350;11.102;2023-01-26T06:24:59;100683.78;;;3.10;68.96
27805;BME280;15183;51.350;11.102;2023-01-26T06:27:25;100656.66;;;3.19;68.30
27805;BME280;15183;51.350;11.102;2023-01-26T06:29:51;100683.78;;;3.45;68.05
27805;BME280;15183;51.350;11.102;2023-01-26T06:32:18;100653.81;;;3.47;68.29
27805;BME280;15183;51.350;11.102;2023-01-26T06:34:44;100690.75;;;3.71;67.92
27805;BME280;15183;51.350;11.102;2023-01-26T06:37:11;100648.25;;;3.51;68.50
27805;BME280;15183;51.350;11.102;2023-01-26T06:39:39;100675.75;;;3.89;68.39
27805;BME280;15183;51.350;11.102;2023-01-26T06:42:07;100671.81;;;4.02;67.84
27805;BME280;15183;51.350;11.102;2023-01-26T06:44:33;100686.63;;;4.19;67.72
27805;BME280;15183;51.350;11.102;2023-01-26T06:47:00;100679.56;;;4.12;67.38
27805;BME280;15183;51.350;11.102;2023-01-26T06:49:26;100702.97;;;4.13;67.45
27805;BME280;15183;51.350;11.102;2023-01-26T06:51:57;100687.22;;;3.97;67.25
27805;BME280;15183;51.350;11.102;2023-01-26T06:54:24;100666.38;;;3.79;67.04
27805;BME280;15183;51.350;11.102;2023-01-26T06:56:51;100706.69;;;3.86;67.19
27805;BME280;15183;51.350;11.102;2023-01-26T06:59:17;100686.97;;;3.65;67.22
27805;BME280;15183;51.350;11.102;2023-01-26T07:01:46;100683.16;;;3.51;67.65
27805;BME280;15183;51.350;11.102;2023-01-26T07:04:15;100690.03;;;3.52;67.68
27805;BME280;15183;51.350;11.102;2023-01-26T07:06:42;100691.50;;;3.55;67.87
27805;BME280;15183;51.350;11.102;2023-01-26T07:09:09;100688.09;;;3.62;67.92
27805;BME280;15183;51.350;11.102;2023-01-26T07:11:36;100675.66;;;3.65;68.02
27805;BME280;15183;51.350;11.102;2023-01-26T07:14:02;100684.69;;;3.62;67.48
27805;BME280;15183;51.350;11.102;2023-01-26T07:16:29;100685.66;;;3.61;67.46
27805;BME280;15183;51.350;11.102;2023-01-26T07:18:55;100665.28;;;3.46;67.61
27805;BME280;15183;51.350;11.102;2023-01-26T07:21:22;100681.69;;;3.57;67.91
27805;BME280;15183;51.350;11.102;2023-01-26T07:23:49;100703.19;;;3.69;67.67
27805;BME280;15183;51.350;11.102;2023-01-26T07:26:17;100679.56;;;3.52;67.70
27805;BME280;15183;51.350;11.102;2023-01-26T07:28:44;100688.78;;;3.73;68.21
27805;BME280;15183;51.350;11.102;2023-01-26T07:31:11;100680.13;;;3.81;67.84
27805;BME280;15183;51.350;11.102;2023-01-26T07:33:39;100690.63;;;3.89;67.80
27805;BME280;15183;51.350;11.102;2023-01-26T07:36:06;100672.78;;;3.84;67.63
27805;BME280;15183;51.350;11.102;2023-01-26T07:38:33;100666.25;;;3.97;67.77
27805;BME280;15183;51.350;11.102;2023-01-26T07:41:05;100679.69;;;4.02;66.82
27805;BME280;15183;51.350;11.102;2023-01-26T07:43:34;100692.16;;;4.00;67.04
27805;BME280;15183;51.350;11.102;2023-01-26T07:46:01;100682.94;;;3.87;67.60
27805;BME280;15183;51.350;11.102;2023-01-26T07:48:27;100702.31;;;4.03;67.61
27805;BME280;15183;51.350;11.102;2023-01-26T07:50:58;100702.44;;;3.93;66.59
27805;BME280;15183;51.350;11.102;2023-01-26T07:53:26;100690.97;;;3.86;67.57
27805;BME280;15183;51.350;11.102;2023-01-26T07:56:10;100693.59;;;3.94;67.14
27805;BME280;15183;51.350;11.102;2023-01-26T07:58:37;100697.19;;;3.93;67.24
27805;BME280;15183;51.350;11.102;2023-01-26T08:01:09;100688.84;;;3.89;67.25
27805;BME280;15183;51.350;11.102;2023-01-26T08:03:37;100695.25;;;3.95;66.88
27805;BME280;15183;51.350;11.102;2023-01-26T08:06:04;100703.75;;;3.89;66.96
27805;BME280;15183;51.350;11.102;2023-01-26T08:08:31;100686.16;;;3.73;67.02
27805;BME280;15183;51.350;11.102;2023-01-26T08:10:59;100673.66;;;3.50;66.76
27805;BME280;15183;51.350;11.102;2023-01-26T08:13:27;100697.22;;;3.42;67.11
27805;BME280;15183;51.350;11.102;2023-01-26T08:15:54;100716.88;;;3.46;67.19
27805;BME280;15183;51.350;11.102;2023-01-26T08:18:20;100701.94;;;3.38;67.48
27805;BME280;15183;51.350;11.102;2023-01-26T08:20:54;100683.56;;;3.30;67.25
27805;BME280;15183;51.350;11.102;2023-01-26T08:23:21;100709.00;;;3.46;67.66
27805;BME280;15183;51.350;11.102;2023-01-26T08:25:47;100698.13;;;3.32;66.99
27805;BME280;15183;51.350;11.102;2023-01-26T08:28:14;100726.31;;;3.39;67.72
27805;BME280;15183;51.350;11.102;2023-01-26T08:30:40;100618.09;;;2.69;67.49
27805;BME280;15183;51.350;11.102;2023-01-26T08:33:07;100699.72;;;3.25;67.41
27805;BME280;15183;51.350;11.102;2023-01-26T08:35:34;100685.44;;;3.19;67.48
27805;BME280;15183;51.350;11.102;2023-01-26T08:38:00;100718.00;;;3.43;67.72
27805;BME280;15183;51.350;11.102;2023-01-26T08:40:27;100713.88;;;3.41;67.39
27805;BME280;15183;51.350;11.102;2023-01-26T08:42:54;100674.97;;;3.19;67.92
27805;BME280;15183;51.350;11.102;2023-01-26T08:45:20;100682.59;;;3.31;67.23
27805;BME280;15183;51.350;11.102;2023-01-26T08:47:49;100671.88;;;3.16;67.14
27805;BME280;15183;51.350;11.102;2023-01-26T08:50:17;100702.13;;;3.45;67.45
27805;BME280;15183;51.350;11.102;2023-01-26T08:52:43;100722.09;;;3.46;67.35
27805;BME280;15183;51.350;11.102;2023-01-26T08:55:10;100702.59;;;3.40;67.41
27805;BME280;15183;51.350;11.102;2023-01-26T08:57:36;100686.66;;;3.33;67.80
27805;BME280;15183;51.350;11.102;2023-01-26T09:00:03;100728.69;;;3.58;67.37
27805;BME280;15183;51.350;11.102;2023-01-26T09:02:30;100718.16;;;3.42;66.50
27805;BME280;15183;51.350;11.102;2023-01-26T09:04:56;100680.28;;;3.01;67.20
27805;BME280;15183;51.350;11.102;2023-01-26T09:07:23;100702.22;;;3.27;67.47
27805;BME280;15183;51.350;11.102;2023-01-26T09:09:49;100714.19;;;3.38;67.58
27805;BME280;15183;51.350;11.102;2023-01-26T09:12:16;100692.94;;;3.14;67.66
27805;BME280;15183;51.350;11.102;2023-01-26T09:14:42;100682.16;;;3.17;67.53
27805;BME280;15183;51.350;11.102;2023-01-26T09:17:08;100693.59;;;3.43;67.80
27805;BME280;15183;51.350;11.102;2023-01-26T09:19:35;100720.38;;;3.63;67.73
27805;BME280;15183;51.350;11.102;2023-01-26T09:22:01;100636.97;;;3.07;67.26
27805;BME280;15183;51.350;11.102;2023-01-26T09:24:28;100694.59;;;3.42;67.41
27805;BME280;15183;51.350;11.102;2023-01-26T09:26:54;100716.22;;;3.44;66.58
27805;BME280;15183;51.350;11.102;2023-01-26T09:29:20;100670.31;;;3.05;67.38
27805;BME280;15183;51.350;11.102;2023-01-26T09:31:47;100726.03;;;3.42;67.65
27805;BME280;15183;51.350;11.102;2023-01-26T09:34:13;100708.16;;;3.37;67.37
27805;BME280;15183;51.350;11.102;2023-01-26T09:36:40;100739.19;;;3.58;66.71
27805;BME280;15183;51.350;11.102;2023-01-26T09:39:06;100728.34;;;3.53;66.60
27805;BME280;15183;51.350;11.102;2023-01-26T09:44:36;100730.63;;;3.48;67.43
27805;BME280;15183;51.350;11.102;2023-01-26T09:47:23;100705.66;;;3.36;67.69
27805;BME280;15183;51.350;11.102;2023-01-26T09:49:55;100721.72;;;3.41;67.43
27805;BME280;15183;51.350;11.102;2023-01-26T09:52:30;100736.72;;;3.57;67.76
27805;BME280;15183;51.350;11.102;2023-01-26T09:55:01;100713.75;;;3.51;67.51
27805;BME280;15183;51.350;11.102;2023-01-26T09:57:49;100709.38;;;3.59;67.74
27805;BME280;15183;51.350;11.102;2023-01-26T10:04:04;100708.94;;;3.72;67.57
27805;BME280;15183;51.350;11.102;2023-01-26T10:06:37;100719.56;;;3.71;67.18
27805;BME280;15183;51.350;11.102;2023-01-26T10:09:24;100709.84;;;3.55;67.14
27805;BME280;15183;51.350;11.102;2023-01-26T10:12:00;100718.75;;;3.62;67.60
27805;BME280;15183;51.350;11.102;2023-01-26T10:14:34;100671.75;;;3.26;67.39
27805;BME280;15183;51.350;11.102;2023-01-26T10:17:04;100715.59;;;3.58;67.18
27805;BME280;15183;51.350;11.102;2023-01-26T10:19:46;100682.63;;;3.39;67.30
27805;BME280;15183;51.350;11.102;2023-01-26T10:22:25;100704.09;;;3.43;66.75
27805;BME280;15183;51.350;11.102;2023-01-26T10:24:55;100674.16;;;3.19;67.02
27805;BME280;15183;51.350;11.102;2023-01-26T10:27:22;100717.53;;;3.48;67.42
27805;BME280;15183;51.350;11.102;2023-01-26T10:29:48;100692.13;;;3.40;67.41
27805;BME280;15183;51.350;11.102;2023-01-26T10:32:18;100696.28;;;3.59;67.81
27805;BME280;15183;51.350;11.102;2023-01-26T10:34:48;100675.00;;;3.62;67.41
27805;BME280;15183;51.350;11.102;2023-01-26T10:37:36;100701.13;;;3.89;67.52
27805;BME280;15183;51.350;11.102;2023-01-26T10:40:05;100669.34;;;3.84;67.29
27805;BME280;15183;51.350;11.102;2023-01-26T10:42:37;100670.50;;;3.98;67.76
27805;BME280;15183;51.350;11.102;2023-01-26T10:48:20;100676.44;;;4.16;67.45
27805;BME280;15183;51.350;11.102;2023-01-26T10:50:49;100675.47;;;4.26;67.06
27805;BME280;15183;51.350;11.102;2023-01-26T10:53:27;100655.16;;;4.19;67.16
27805;BME280;15183;51.350;11.102;2023-01-26T10:56:05;100675.81;;;4.31;66.46
27805;BME280;15183;51.350;11.102;2023-01-26T11:01:15;100667.41;;;4.02;66.78
27805;BME280;15183;51.350;11.102;2023-01-26T11:04:04;100678.56;;;4.13;66.30
27805;BME280;15183;51.350;11.102;2023-01-26T11:06:33;100678.38;;;4.06;67.30
27805;BME280;15183;51.350;11.102;2023-01-26T11:11:39;100666.44;;;4.12;67.19
27805;BME280;15183;51.350;11.102;2023-01-26T11:14:16;100633.47;;;3.93;66.96
27805;BME280;15183;51.350;11.102;2023-01-26T11:17:19;100662.38;;;4.17;66.98
27805;BME280;15183;51.350;11.102;2023-01-26T11:26:17;100660.88;;;4.23;67.00
27805;BME280;15183;51.350;11.102;2023-01-26T11:34:37;100648.25;;;4.35;66.56
27805;BME280;15183;51.350;11.102;2023-01-26T11:43:25;100636.28;;;4.57;67.02
27805;BME280;15183;51.350;11.102;2023-01-26T11:46:10;100628.38;;;4.66;66.78
27805;BME280;15183;51.350;11.102;2023-01-26T12:00:44;100596.16;;;5.91;66.34
27805;BME280;15183;51.350;11.102;2023-01-26T12:03:34;100577.31;;;6.11;65.87
27805;BME280;15183;51.350;11.102;2023-01-26T12:06:10;100565.72;;;6.20;65.49
27805;BME280;15183;51.350;11.102;2023-01-26T12:14:53;100560.13;;;6.39;65.08
27805;BME280;15183;51.350;11.102;2023-01-26T12:17:31;100568.16;;;6.37;65.34
27805;BME280;15183;51.350;11.102;2023-01-26T12:20:27;100577.25;;;6.34;64.48
27805;BME280;15183;51.350;11.102;2023-01-26T12:26:19;100586.28;;;6.17;64.52
27805;BME280;15183;51.350;11.102;2023-01-26T12:29:05;100579.56;;;6.14;64.72
27805;BME280;15183;51.350;11.102;2023-01-26T12:31:48;100571.91;;;6.04;64.78
27805;BME280;15183;51.350;11.102;2023-01-26T12:35:11;100576.31;;;5.89;63.55
27805;BME280;15183;51.350;11.102;2023-01-26T12:38:02;100554.72;;;5.47;64.26
27805;BME280;15183;51.350;11.102;2023-01-26T12:46:02;100565.47;;;4.89;64.64
27805;BME280;15183;51.350;11.102;2023-01-26T12:49:27;100578.47;;;4.90;64.95
27805;BME280;15183;51.350;11.102;2023-01-26T12:52:05;100568.78;;;4.83;65.28
27805;BME280;15183;51.350;11.102;2023-01-26T12:57:44;100574.84;;;4.91;65.03
27805;BME280;15183;51.350;11.102;2023-01-26T13:00:32;100566.81;;;4.85;65.38
27805;BME280;15183;51.350;11.102;2023-01-26T13:03:23;100548.97;;;4.80;65.70
27805;BME280;15183;51.350;11.102;2023-01-26T13:06:00;100572.66;;;5.03;65.42
27805;BME280;15183;51.350;11.102;2023-01-26T13:11:06;100552.94;;;5.07;64.74
27805;BME280;15183;51.350;11.102;2023-01-26T13:13:52;100573.84;;;5.32;65.13
27805;BME280;15183;51.350;11.102;2023-01-26T13:18:57;100564.53;;;5.53;64.15
27805;BME280;15183;51.350;11.102;2023-01-26T13:26:46;100529.06;;;5.72;63.92
27805;BME280;15183;51.350;11.102;2023-01-26T13:32:01;100572.75;;;5.97;63.56
27805;BME280;15183;51.350;11.102;2023-01-26T13:34:56;100571.44;;;6.01;62.79
27805;BME280;15183;51.350;11.102;2023-01-26T13:38:08;100565.19;;;6.02;62.65
27805;BME280;15183;51.350;11.102;2023-01-26T13:40:41;100538.38;;;5.83;62.87
27805;BME280;15183;51.350;11.102;2023-01-26T13:46:35;100547.47;;;5.96;63.42
27805;BME280;15183;51.350;11.102;2023-01-26T13:49:03;100547.78;;;6.01;63.15
27805;BME280;15183;51.350;11.102;2023-01-26T13:51:33;100542.78;;;6.06;63.29
27805;BME280;15183;51.350;11.102;2023-01-26T13:54:13;100551.09;;;6.18;63.54
27805;BME280;15183;51.350;11.102;2023-01-26T13:59:26;100556.91;;;6.13;63.46
27805;BME280;15183;51.350;11.102;2023-01-26T14:01:55;100560.16;;;6.15;63.80
27805;BME280;15183;51.350;11.102;2023-01-26T14:07:12;100562.69;;;6.08;63.60
27805;BME280;15183;51.350;11.102;2023-01-26T14:09:50;100549.31;;;5.87;63.00
27805;BME280;15183;51.350;11.102;2023-01-26T14:12:32;100569.28;;;5.81;63.57
27805;BME280;15183;51.350;11.102;2023-01-26T14:15:03;100564.53;;;5.53;63.47
27805;BME280;15183;51.350;11.102;2023-01-26T14:17:45;100560.25;;;5.52;64.09
27805;BME280;15183;51.350;11.102;2023-01-26T14:20:35;100569.97;;;5.52;64.35
27805;BME280;15183;51.350;11.102;2023-01-26T14:25:41;100578.78;;;5.59;64.13
27805;BME280;15183;51.350;11.102;2023-01-26T14:28:20;100563.53;;;5.54;63.86
27805;BME280;15183;51.350;11.102;2023-01-26T14:30:53;100554.22;;;5.43;63.72
27805;BME280;15183;51.350;11.102;2023-01-26T14:33:23;100562.25;;;5.50;64.20
27805;BME280;15183;51.350;11.102;2023-01-26T14:36:02;100576.22;;;5.50;63.81
27805;BME280;15183;51.350;11.102;2023-01-26T14:38:32;100582.63;;;5.48;64.07
27805;BME280;15183;51.350;11.102;2023-01-26T14:41:25;100579.13;;;5.32;63.84
27805;BME280;15183;51.350;11.102;2023-01-26T14:47:35;100577.38;;;5.16;64.36
27805;BME280;15183;51.350;11.102;2023-01-26T14:50:22;100562.63;;;5.07;64.59
27805;BME280;15183;51.350;11.102;2023-01-26T14:52:53;100560.03;;;4.99;64.73
27805;BME280;15183;51.350;11.102;2023-01-26T14:55:27;100567.53;;;5.10;64.55
27805;BME280;15183;51.350;11.102;2023-01-26T14:57:55;100573.91;;;5.16;64.33
27805;BME280;15183;51.350;11.102;2023-01-26T15:00:33;100580.16;;;5.15;64.10